Time;durP1;ratioP1;P1;durP2;ratioP2;P2;SDS_P1;SDS_P2;PMS_P1;PMS_P2;Temp;Humidity;BMP_temperature;BMP_pressure;BME280_temperature;BME280_humidity;BME280_pressure;Samples;Min_cycle;Max_cycle;Signal;HPM_P1;HPM_P2
2021/06/29 00:01:51;;;;;;;7.87;7.27;;;22.10;99.90;;;;;;5074247;28;20191;-72
2021/06/29 00:04:17;;;;;;;8.30;7.50;;;22.00;99.90;;;;;;5073563;28;20189;-72
2021/06/29 00:06:43;;;;;;;8.47;7.60;;;21.90;99.90;;;;;;5073701;28;20246;-71
2021/06/29 00:09:08;;;;;;;7.57;7.07;;;21.80;99.90;;;;;;5074159;28;20173;-71
2021/06/29 00:11:34;;;;;;;7.43;6.83;;;21.90;99.90;;;;;;5073973;28;20521;-72
2021/06/29 00:13:59;;;;;;;7.97;7.37;;;22.00;99.90;;;;;;5073223;28;20569;-71
2021/06/29 00:16:25;;;;;;;8.40;7.70;;;22.10;99.90;;;;;;5075223;28;20189;-71
2021/06/29 00:18:50;;;;;;;9.13;8.23;;;22.10;99.90;;;;;;5074632;28;20529;-71
2021/06/29 00:21:16;;;;;;;8.90;8.10;;;22.10;99.90;;;;;;5074299;28;20170;-71
2021/06/29 00:23:42;;;;;;;9.50;8.80;;;22.00;99.90;;;;;;5073394;28;20194;-71
2021/06/29 00:26:11;;;;;;;8.20;7.60;;;22.00;99.90;;;;;;5074090;28;20209;-70
2021/06/29 00:28:37;;;;;;;8.23;7.43;;;22.10;99.90;;;;;;5074606;28;20174;-71
2021/06/29 00:31:03;;;;;;;8.57;7.87;;;22.10;99.90;;;;;;5074027;28;20795;-72
2021/06/29 00:33:29;;;;;;;8.43;7.73;;;22.10;99.90;;;;;;5073936;28;20407;-71
2021/06/29 00:35:54;;;;;;;8.43;7.73;;;22.10;99.90;;;;;;5074243;28;20458;-71
2021/06/29 00:38:20;;;;;;;9.00;8.30;;;22.00;99.90;;;;;;5075172;28;20185;-71
2021/06/29 00:40:46;;;;;;;8.60;7.90;;;21.90;99.90;;;;;;5072912;28;20268;-71
2021/06/29 00:43:11;;;;;;;8.87;8.17;;;21.90;99.90;;;;;;5076239;28;20204;-71
2021/06/29 00:45:37;;;;;;;9.20;8.50;;;21.80;99.90;;;;;;5082933;28;20208;-71
2021/06/29 00:48:03;;;;;;;8.67;8.00;;;21.70;99.90;;;;;;5074849;28;20202;-71
2021/06/29 00:50:28;;;;;;;9.13;8.23;;;21.70;99.90;;;;;;5073608;28;20184;-71
2021/06/29 00:52:54;;;;;;;8.70;8.00;;;21.70;99.90;;;;;;5073352;28;20475;-70
2021/06/29 00:55:20;;;;;;;8.60;7.90;;;21.80;99.90;;;;;;5073530;28;20209;-71
2021/06/29 00:57:50;;;;;;;8.87;8.17;;;21.80;99.90;;;;;;5073409;28;20680;-71
2021/06/29 01:00:17;;;;;;;9.00;8.20;;;21.80;99.90;;;;;;5075111;28;20201;-71
2021/06/29 01:02:43;;;;;;;8.93;8.23;;;21.70;99.90;;;;;;5072907;28;20770;-71
2021/06/29 01:05:09;;;;;;;9.30;8.50;;;21.70;99.90;;;;;;5073223;28;20463;-71
2021/06/29 01:07:35;;;;;;;8.83;8.20;;;21.70;99.90;;;;;;5072021;28;20178;-71
2021/06/29 01:10:06;;;;;;;9.90;9.10;;;21.60;99.90;;;;;;5074059;28;20428;-71
2021/06/29 01:12:33;;;;;;;9.50;8.80;;;21.60;99.90;;;;;;5073431;28;20905;-71
2021/06/29 01:14:58;;;;;;;9.20;8.50;;;21.70;99.90;;;;;;5072315;28;20485;-71
2021/06/29 01:17:25;;;;;;;9.33;8.43;;;21.60;99.90;;;;;;5073564;28;20473;-71
2021/06/29 01:19:51;;;;;;;9.00;8.30;;;21.60;99.90;;;;;;5074543;28;20181;-71
2021/06/29 01:22:19;;;;;;;8.97;8.13;;;21.50;99.90;;;;;;5073119;28;20408;-71
2021/06/29 01:24:50;;;;;;;8.53;7.93;;;21.60;99.90;;;;;;5072398;28;20455;-71
2021/06/29 01:32:36;;;;;;;9.27;8.37;;;21.80;99.90;;;;;;5085540;28;20895;-71
2021/06/29 01:35:06;;;;;;;9.23;8.52;;;21.80;99.90;;;;;;5095586;28;20420;-71
2021/06/29 01:37:33;;;;;;;9.17;8.37;;;21.90;99.90;;;;;;5096914;28;20187;-71
2021/06/29 01:40:12;;;;;;;8.60;7.90;;;21.90;99.90;;;;;;5096014;28;20422;-70
2021/06/29 01:42:38;;;;;;;9.10;8.30;;;22.00;99.90;;;;;;5104390;28;20386;-71
2021/06/29 01:45:05;;;;;;;9.30;8.60;;;22.00;99.90;;;;;;5098037;28;20474;-71
2021/06/29 01:47:39;;;;;;;8.80;7.97;;;22.10;99.90;;;;;;5096443;28;20254;-71
2021/06/29 01:50:15;;;;;;;8.73;8.13;;;22.10;99.90;;;;;;5093915;28;20772;-72
2021/06/29 01:52:41;;;;;;;9.13;8.43;;;22.20;99.90;;;;;;5095764;28;20418;-71
2021/06/29 01:55:07;;;;;;;8.90;8.20;;;22.10;99.90;;;;;;5096409;28;20434;-71
2021/06/29 01:57:33;;;;;;;8.80;8.10;;;22.10;99.90;;;;;;5096192;28;20184;-71
2021/06/29 01:59:59;;;;;;;8.63;8.03;;;22.10;99.90;;;;;;5093444;28;20514;-71
2021/06/29 02:02:25;;;;;;;8.53;7.70;;;22.20;99.90;;;;;;5076149;28;20437;-71
2021/06/29 02:04:50;;;;;;;8.40;7.80;;;22.20;99.90;;;;;;5076736;28;20189;-71
2021/06/29 02:07:16;;;;;;;8.90;8.20;;;22.20;99.90;;;;;;5092486;28;20170;-71
2021/06/29 02:09:41;;;;;;;9.03;8.13;;;22.20;99.90;;;;;;5076506;28;20200;-71
2021/06/29 02:12:07;;;;;;;9.07;8.37;;;22.30;99.90;;;;;;5075555;28;20185;-71
2021/06/29 02:14:34;;;;;;;9.53;8.67;;;22.20;99.90;;;;;;5075859;28;20194;-71
2021/06/29 02:16:59;;;;;;;8.63;7.93;;;22.10;99.90;;;;;;5075142;28;20431;-71
2021/06/29 02:19:25;;;;;;;10.50;9.60;;;22.10;99.90;;;;;;5076251;28;20541;-71
2021/06/29 02:21:50;;;;;;;10.37;9.50;;;22.00;99.90;;;;;;5075647;28;20264;-71
2021/06/29 02:24:16;;;;;;;10.83;9.90;;;21.90;99.90;;;;;;5075883;28;20710;-71
2021/06/29 02:26:41;;;;;;;14.23;12.63;;;21.80;99.90;;;;;;5075771;28;20268;-72
2021/06/29 02:29:07;;;;;;;12.30;11.20;;;21.70;99.90;;;;;;5075598;28;20180;-72
2021/06/29 02:31:33;;;;;;;14.83;13.43;;;21.70;99.90;;;;;;5076781;28;20653;-72
2021/06/29 02:33:58;;;;;;;16.90;15.20;;;21.60;99.90;;;;;;5075147;28;20589;-71
2021/06/29 02:36:24;;;;;;;17.30;15.73;;;21.50;99.90;;;;;;5081161;28;20754;-71
2021/06/29 02:38:49;;;;;;;16.20;14.73;;;21.40;99.90;;;;;;5080045;28;20173;-72
2021/06/29 02:41:15;;;;;;;17.97;16.27;;;21.40;99.90;;;;;;5075740;28;20402;-71
2021/06/29 02:43:42;;;;;;;17.93;16.33;;;21.30;99.90;;;;;;5076143;28;20177;-71
2021/06/29 02:46:08;;;;;;;16.40;14.80;;;21.40;99.90;;;;;;5075291;28;20201;-71
2021/06/29 02:48:33;;;;;;;15.93;14.43;;;21.30;99.90;;;;;;5075335;28;20519;-71
2021/06/29 02:50:59;;;;;;;16.10;14.53;;;21.30;99.90;;;;;;5075532;28;20223;-71
2021/06/29 02:53:24;;;;;;;16.33;14.83;;;21.20;99.90;;;;;;5077230;28;20643;-71
2021/06/29 02:55:50;;;;;;;13.60;12.30;;;21.20;99.90;;;;;;5078625;28;20682;-71
2021/06/29 02:58:15;;;;;;;17.70;16.10;;;21.30;99.90;;;;;;5079036;28;20531;-71
2021/06/29 03:00:41;;;;;;;15.80;14.33;;;21.30;99.90;;;;;;5078663;28;20173;-71
2021/06/29 03:03:06;;;;;;;15.03;13.70;;;21.30;99.90;;;;;;5077691;28;20181;-71
2021/06/29 03:05:32;;;;;;;14.47;13.07;;;21.30;99.90;;;;;;5074425;28;20201;-71
2021/06/29 03:07:58;;;;;;;14.03;12.67;;;21.30;99.90;;;;;;5074562;28;20532;-71
2021/06/29 03:10:23;;;;;;;14.60;13.10;;;21.30;99.90;;;;;;5074178;28;20256;-71
2021/06/29 03:12:49;;;;;;;14.53;13.13;;;21.20;99.90;;;;;;5080578;28;20192;-71
2021/06/29 03:15:14;;;;;;;16.27;14.87;;;21.20;99.90;;;;;;5084007;28;20205;-71
2021/06/29 03:17:40;;;;;;;15.23;13.63;;;21.20;99.90;;;;;;5074624;28;20190;-71
2021/06/29 03:20:11;;;;;;;15.40;14.05;;;21.30;99.90;;;;;;5074513;28;20421;-71
2021/06/29 03:22:38;;;;;;;16.40;14.80;;;21.30;99.90;;;;;;5074407;28;20189;-71
2021/06/29 03:25:04;;;;;;;15.30;13.80;;;21.40;99.90;;;;;;5075178;28;20505;-71
2021/06/29 03:27:30;;;;;;;14.07;12.63;;;21.40;99.90;;;;;;5074148;28;20404;-71
2021/06/29 03:29:55;;;;;;;13.27;12.17;;;21.40;99.90;;;;;;5074443;28;20905;-71
2021/06/29 03:32:21;;;;;;;13.17;12.10;;;21.40;99.90;;;;;;5074084;28;20509;-71
2021/06/29 03:34:47;;;;;;;12.60;11.60;;;21.50;99.90;;;;;;5073502;28;20191;-71
2021/06/29 03:37:12;;;;;;;12.77;11.77;;;21.40;99.90;;;;;;5075031;28;20200;-71
2021/06/29 03:39:38;;;;;;;12.93;11.83;;;21.40;99.90;;;;;;5074511;28;20222;-71
2021/06/29 03:42:04;;;;;;;12.07;11.07;;;21.40;99.90;;;;;;5072982;28;20177;-71
2021/06/29 03:44:29;;;;;;;13.30;12.07;;;21.40;99.90;;;;;;5073534;28;20201;-71
2021/06/29 03:46:55;;;;;;;12.17;10.97;;;21.40;99.90;;;;;;5074780;28;20904;-71
2021/06/29 03:49:21;;;;;;;11.27;10.47;;;21.30;99.90;;;;;;5072998;28;20165;-71
2021/06/29 03:51:46;;;;;;;10.20;9.20;;;21.40;99.90;;;;;;5073572;28;20678;-71
2021/06/29 03:54:12;;;;;;;11.00;10.10;;;21.40;99.90;;;;;;5073923;28;20515;-71
2021/06/29 03:56:37;;;;;;;11.67;10.70;;;21.40;99.90;;;;;;5074816;28;20700;-71
2021/06/29 03:59:06;;;;;;;10.47;9.67;;;21.40;99.90;;;;;;5073217;28;20189;-71
2021/06/29 04:01:32;;;;;;;10.73;9.93;;;21.40;99.90;;;;;;5073913;28;20173;-71
2021/06/29 04:03:59;;;;;;;9.70;8.90;;;21.30;99.90;;;;;;5073454;28;20410;-71
2021/06/29 04:06:30;;;;;;;10.57;9.73;;;21.30;99.90;;;;;;5073520;28;20370;-71
2021/06/29 04:08:57;;;;;;;9.50;8.70;;;21.30;99.90;;;;;;5074559;28;20944;-70
2021/06/29 04:11:24;;;;;;;9.83;9.03;;;21.40;99.90;;;;;;5077682;28;20450;-71
2021/06/29 04:13:50;;;;;;;10.03;9.23;;;21.40;99.90;;;;;;5080231;28;20415;-71
2021/06/29 04:16:16;;;;;;;10.27;9.40;;;21.40;99.90;;;;;;5073502;28;20832;-71
2021/06/29 04:18:43;;;;;;;9.57;8.73;;;21.30;99.90;;;;;;5074446;28;20188;-71
2021/06/29 04:21:09;;;;;;;9.20;8.47;;;21.20;99.90;;;;;;5076157;28;20773;-71
2021/06/29 04:23:35;;;;;;;9.50;8.70;;;21.20;99.90;;;;;;5078024;28;20434;-72
2021/06/29 04:26:01;;;;;;;9.37;8.57;;;21.10;99.90;;;;;;5085574;28;20469;-71
2021/06/29 04:28:27;;;;;;;8.90;8.20;;;21.10;99.90;;;;;;5074467;28;20877;-71
2021/06/29 04:30:53;;;;;;;8.10;7.50;;;21.20;99.90;;;;;;5077695;28;20427;-71
2021/06/29 04:33:18;;;;;;;8.60;7.80;;;21.20;99.90;;;;;;5081258;28;20520;-71
2021/06/29 04:35:44;;;;;;;9.30;8.40;;;21.30;99.90;;;;;;5073293;28;20445;-71
2021/06/29 04:38:10;;;;;;;9.07;8.07;;;21.50;99.90;;;;;;5073126;28;20170;-71
2021/06/29 04:40:35;;;;;;;8.90;8.00;;;21.60;99.90;;;;;;5074523;28;20186;-71
2021/06/29 04:43:01;;;;;;;9.60;8.70;;;21.70;99.90;;;;;;5073429;28;20178;-71
2021/06/29 04:45:27;;;;;;;10.07;9.07;;;21.80;99.90;;;;;;5073294;28;20577;-71
2021/06/29 04:47:55;;;;;;;11.50;10.37;;;21.80;99.90;;;;;;5072005;28;20989;-71
2021/06/29 04:50:22;;;;;;;11.90;10.80;;;21.70;99.90;;;;;;5076124;28;20419;-71
2021/06/29 04:52:48;;;;;;;11.90;10.87;;;21.60;99.90;;;;;;5085388;28;20475;-71
2021/06/29 04:55:14;;;;;;;12.00;10.83;;;21.60;99.90;;;;;;5087899;28;20427;-72
2021/06/29 04:57:40;;;;;;;13.23;11.93;;;21.60;99.90;;;;;;5092602;28;20433;-71
2021/06/29 05:00:10;;;;;;;11.37;10.47;;;21.50;99.90;;;;;;5074720;28;20837;-71
2021/06/29 05:02:36;;;;;;;11.60;10.60;;;21.50;99.90;;;;;;5078136;28;20427;-72
2021/06/29 05:05:03;;;;;;;12.10;10.97;;;21.40;99.90;;;;;;5077052;28;20455;-71
2021/06/29 05:07:28;;;;;;;11.77;10.67;;;21.50;99.90;;;;;;5076861;28;20893;-71
2021/06/29 05:09:54;;;;;;;12.33;11.30;;;21.60;99.90;;;;;;5076952;28;20491;-71
2021/06/29 05:12:19;;;;;;;13.73;12.47;;;21.70;99.90;;;;;;5087936;28;20199;-71
2021/06/29 05:14:45;;;;;;;13.90;12.50;;;21.70;99.90;;;;;;5095977;28;20173;-72
2021/06/29 05:17:11;;;;;;;13.13;12.03;;;21.70;99.90;;;;;;5097525;28;20169;-71
2021/06/29 05:19:36;;;;;;;15.00;13.50;;;21.70;99.90;;;;;;5097980;28;20173;-74
2021/06/29 05:22:02;;;;;;;13.60;12.37;;;21.80;99.90;;;;;;5103999;28;20646;-72
2021/06/29 05:24:28;;;;;;;13.70;12.50;;;21.90;99.90;;;;;;5096534;28;20081;-72
2021/06/29 05:26:53;;;;;;;14.53;13.27;;;22.10;99.90;;;;;;5096880;28;20204;-72
2021/06/29 05:29:19;;;;;;;13.47;12.17;;;22.10;99.90;;;;;;5081334;28;20177;-72
2021/06/29 05:31:44;;;;;;;13.67;12.50;;;22.10;99.90;;;;;;5076740;28;20173;-72
2021/06/29 05:34:11;;;;;;;16.13;13.40;;;22.20;99.90;;;;;;5075724;28;20627;-72
2021/06/29 05:36:36;;;;;;;13.97;12.67;;;22.10;99.90;;;;;;5076250;28;20186;-72
2021/06/29 05:39:03;;;;;;;12.63;11.60;;;21.90;99.90;;;;;;5076967;28;20520;-72
2021/06/29 05:41:28;;;;;;;13.63;12.37;;;21.80;99.90;;;;;;5076072;28;20205;-72
2021/06/29 05:43:54;;;;;;;12.00;11.00;;;21.90;99.90;;;;;;5076406;28;20436;-72
2021/06/29 05:46:19;;;;;;;12.10;11.10;;;21.90;99.90;;;;;;5076191;28;20250;-72
2021/06/29 05:48:45;;;;;;;14.67;13.17;;;22.00;99.90;;;;;;5077436;28;20178;-72
2021/06/29 05:51:10;;;;;;;12.67;11.57;;;21.80;99.90;;;;;;5076900;28;20181;-72
2021/06/29 05:53:36;;;;;;;14.43;12.93;;;21.70;99.90;;;;;;5075700;28;20189;-71
2021/06/29 05:56:01;;;;;;;13.27;12.17;;;21.80;99.90;;;;;;5076076;28;20569;-72
2021/06/29 05:58:27;;;;;;;13.80;12.70;;;21.80;99.90;;;;;;5076025;28;20182;-72
2021/06/29 06:00:53;;;;;;;12.63;11.50;;;21.60;99.90;;;;;;5077283;28;20205;-72
2021/06/29 06:03:20;;;;;;;15.70;14.30;;;21.70;99.90;;;;;;5074967;28;20872;-72
2021/06/29 06:05:46;;;;;;;12.57;11.37;;;21.50;99.90;;;;;;5075729;28;20615;-72
2021/06/29 06:08:11;;;;;;;13.07;11.77;;;21.60;99.90;;;;;;5075661;28;20427;-72
2021/06/29 06:10:37;;;;;;;13.10;12.00;;;21.50;99.90;;;;;;5077245;28;20178;-72
2021/06/29 06:13:02;;;;;;;12.80;11.63;;;21.60;99.90;;;;;;5074786;28;20611;-72
2021/06/29 06:15:28;;;;;;;12.50;11.50;;;21.70;99.90;;;;;;5075547;28;20211;-72
2021/06/29 06:17:53;;;;;;;14.60;13.30;;;21.90;99.90;;;;;;5075382;28;20684;-72
2021/06/29 06:20:19;;;;;;;18.93;17.13;;;21.90;99.90;;;;;;5075711;28;20166;-72
2021/06/29 06:22:46;;;;;;;19.00;17.10;;;21.90;99.90;;;;;;5092562;28;20173;-72
2021/06/29 06:25:12;;;;;;;19.00;17.23;;;21.80;99.90;;;;;;5095939;28;20572;-72
2021/06/29 06:27:38;;;;;;;16.43;14.97;;;21.80;99.90;;;;;;5095502;28;20908;-72
2021/06/29 06:30:05;;;;;;;19.70;17.80;;;21.70;99.90;;;;;;5095554;28;20437;-71
2021/06/29 06:32:31;;;;;;;17.10;15.50;;;21.70;99.90;;;;;;5093695;28;20172;-71
2021/06/29 06:34:56;;;;;;;19.73;17.80;;;21.80;99.90;;;;;;5095477;28;20403;-71
2021/06/29 06:37:22;;;;;;;22.20;16.47;;;21.80;99.90;;;;;;5094441;28;20198;-71
2021/06/29 06:39:48;;;;;;;15.17;13.80;;;21.60;99.90;;;;;;5095068;28;20263;-72
2021/06/29 06:42:14;;;;;;;15.07;13.67;;;21.70;99.90;;;;;;5093340;28;20235;-71
2021/06/29 06:44:39;;;;;;;13.80;12.50;;;21.70;99.90;;;;;;5095196;28;20188;-71
2021/06/29 06:47:05;;;;;;;13.93;12.57;;;21.80;99.90;;;;;;5095026;28;20497;-72
2021/06/29 06:49:31;;;;;;;12.90;10.80;;;21.80;99.90;;;;;;5093760;28;20191;-72
2021/06/29 06:51:56;;;;;;;13.10;11.70;;;21.80;99.90;;;;;;5095109;28;20210;-72
2021/06/29 06:54:22;;;;;;;16.00;10.60;;;21.70;99.90;;;;;;5079952;28;20191;-72
2021/06/29 06:56:47;;;;;;;13.50;10.80;;;21.80;99.90;;;;;;5074569;28;20194;-71
2021/06/29 06:59:13;;;;;;;10.67;9.77;;;21.80;99.90;;;;;;5091091;28;20188;-71
2021/06/29 07:01:39;;;;;;;13.43;12.10;;;21.90;99.90;;;;;;5095992;28;20589;-72
2021/06/29 07:04:05;;;;;;;12.33;11.23;;;21.80;99.90;;;;;;5092947;28;20226;-71
2021/06/29 07:06:31;;;;;;;10.30;9.30;;;21.90;99.90;;;;;;5095903;28;20423;-72
2021/06/29 07:08:57;;;;;;;10.63;9.53;;;21.90;99.90;;;;;;5094808;28;20173;-72
2021/06/29 07:11:22;;;;;;;10.77;9.77;;;21.90;99.90;;;;;;5086382;28;20446;-73
2021/06/29 07:13:48;;;;;;;10.17;9.27;;;21.90;99.90;;;;;;5081445;28;20265;-72
2021/06/29 07:16:14;;;;;;;10.40;9.30;;;22.10;99.90;;;;;;5083404;28;20197;-72
2021/06/29 07:18:39;;;;;;;9.40;8.43;;;22.20;99.90;;;;;;5093895;28;20240;-72
2021/06/29 07:21:05;;;;;;;11.50;10.50;;;22.20;99.90;;;;;;5074545;28;20414;-72
2021/06/29 07:23:31;;;;;;;8.30;7.60;;;22.30;99.90;;;;;;5075313;28;20893;-72
2021/06/29 07:25:57;;;;;;;11.67;10.67;;;22.40;99.90;;;;;;5074603;28;20225;-72
2021/06/29 07:28:22;;;;;;;10.50;9.60;;;22.40;99.90;;;;;;5074161;28;20170;-71
2021/06/29 07:30:48;;;;;;;11.27;10.27;;;22.40;99.90;;;;;;5075541;28;20196;-72
2021/06/29 07:33:13;;;;;;;10.40;9.50;;;22.50;99.90;;;;;;5074111;28;20174;-72
2021/06/29 07:35:39;;;;;;;12.50;11.00;;;22.50;99.90;;;;;;5075663;28;20204;-72
2021/06/29 07:38:06;;;;;;;11.07;10.17;;;22.40;99.90;;;;;;5075488;28;20215;-71
2021/06/29 07:40:32;;;;;;;9.60;8.70;;;22.40;99.90;;;;;;5074547;28;20196;-72
2021/06/29 07:42:58;;;;;;;8.43;7.73;;;22.30;99.90;;;;;;5073694;28;20448;-72
2021/06/29 07:45:27;;;;;;;7.77;7.17;;;22.30;99.90;;;;;;5073822;28;20335;-72
2021/06/29 07:47:52;;;;;;;6.20;5.70;;;22.20;99.90;;;;;;5075093;28;20466;-72
2021/06/29 07:50:18;;;;;;;6.50;6.00;;;22.10;99.90;;;;;;5073877;28;20899;-72
2021/06/29 07:52:44;;;;;;;7.47;6.80;;;22.10;99.90;;;;;;5073561;28;20169;-72
2021/06/29 07:55:10;;;;;;;6.60;6.00;;;22.10;99.90;;;;;;5074352;28;20196;-72
2021/06/29 07:57:35;;;;;;;6.53;5.83;;;22.10;99.90;;;;;;5082743;28;20538;-72
2021/06/29 08:00:02;;;;;;;6.80;6.23;;;21.90;99.90;;;;;;5094081;28;20472;-72
2021/06/29 08:02:28;;;;;;;6.20;5.70;;;21.90;99.90;;;;;;5094350;28;20177;-72
2021/06/29 08:04:53;;;;;;;5.40;4.90;;;22.00;99.90;;;;;;5094748;28;20450;-72
2021/06/29 08:07:19;;;;;;;6.13;5.47;;;22.10;99.90;;;;;;5093717;28;20190;-72
2021/06/29 08:09:44;;;;;;;6.53;5.83;;;22.20;99.90;;;;;;5097523;28;20575;-72
2021/06/29 08:12:10;;;;;;;5.83;5.33;;;22.40;99.90;;;;;;5104094;28;20665;-71
2021/06/29 08:14:36;;;;;;;5.63;5.10;;;22.40;99.90;;;;;;5098828;28;20195;-72
2021/06/29 08:17:04;;;;;;;6.10;5.60;;;22.50;99.90;;;;;;5095081;28;20559;-72
2021/06/29 08:19:30;;;;;;;6.70;5.87;;;22.50;99.90;;;;;;5080500;28;20481;-72
2021/06/29 08:21:56;;;;;;;6.17;5.57;;;22.50;99.90;;;;;;5074353;28;20412;-72
2021/06/29 08:24:22;;;;;;;6.17;5.57;;;22.40;99.90;;;;;;5074503;28;20221;-72
2021/06/29 08:26:48;;;;;;;6.60;5.50;;;22.60;99.90;;;;;;5073855;28;20438;-72
2021/06/29 08:29:14;;;;;;;7.90;7.00;;;22.80;99.90;;;;;;5082190;28;20781;-72
2021/06/29 08:31:39;;;;;;;6.50;6.00;;;22.90;99.90;;;;;;5098746;28;20196;-72
2021/06/29 08:34:05;;;;;;;7.10;6.50;;;22.90;99.90;;;;;;5103738;28;20264;-72
2021/06/29 08:36:32;;;;;;;6.93;6.00;;;23.00;99.90;;;;;;5113227;28;20266;-72
2021/06/29 08:38:58;;;;;;;6.47;5.87;;;23.20;99.90;;;;;;5106002;28;20767;-72
2021/06/29 08:41:24;;;;;;;6.97;6.27;;;23.30;99.90;;;;;;5078252;28;20499;-71
2021/06/29 08:43:51;;;;;;;7.57;6.87;;;23.30;99.90;;;;;;5077452;28;20173;-71
2021/06/29 08:46:17;;;;;;;8.30;7.50;;;23.20;99.90;;;;;;5077807;28;20201;-72
2021/06/29 08:48:42;;;;;;;8.53;7.83;;;23.20;99.90;;;;;;5077816;28;20410;-72
2021/06/29 08:51:10;;;;;;;8.13;7.53;;;23.20;99.90;;;;;;5079097;28;20185;-72
2021/06/29 08:53:36;;;;;;;7.50;7.00;;;23.20;99.90;;;;;;5078297;28;20161;-73
2021/06/29 08:56:03;;;;;;;8.67;7.97;;;23.30;99.90;;;;;;5078096;28;20518;-73
2021/06/29 08:58:32;;;;;;;10.40;9.40;;;23.20;99.90;;;;;;5075840;28;20519;-72
2021/06/29 09:00:59;;;;;;;8.90;8.10;;;23.30;99.90;;;;;;5081002;28;20575;-72
2021/06/29 09:03:24;;;;;;;10.70;9.73;;;23.30;99.90;;;;;;5097704;28;20403;-72
2021/06/29 09:05:53;;;;;;;11.10;9.60;;;23.40;99.90;;;;;;5098341;28;21008;-72
2021/06/29 09:08:21;;;;;;;10.80;9.73;;;23.40;99.90;;;;;;5098634;28;20173;-72
2021/06/29 09:11:10;;;;;;;10.97;9.87;;;23.50;99.90;;;;;;5099794;28;20406;-72
2021/06/29 09:13:37;;;;;;;10.50;9.60;;;23.60;99.90;;;;;;5078532;28;20780;-73
2021/06/29 09:16:03;;;;;;;12.30;11.10;;;23.70;99.90;;;;;;5077530;28;20451;-73
2021/06/29 09:18:31;;;;;;;9.97;9.07;;;23.60;99.90;;;;;;5079021;28;20396;-72
2021/06/29 09:21:03;;;;;;;8.50;7.80;;;23.70;99.90;;;;;;5097256;28;20399;-72
2021/06/29 09:23:37;;;;;;;10.20;9.40;;;23.90;99.90;;;;;;5081828;28;20447;-72
2021/06/29 09:26:13;;;;;;;10.10;9.20;;;23.80;99.90;;;;;;5077179;28;20464;-72
2021/06/29 09:28:42;;;;;;;9.87;8.97;;;24.00;99.90;;;;;;5087291;28;20969;-72
2021/06/29 09:31:13;;;;;;;9.83;8.97;;;24.10;99.90;;;;;;5097417;28;20403;-73
2021/06/29 09:33:41;;;;;;;10.03;9.13;;;24.20;99.90;;;;;;5097089;28;20395;-72
2021/06/29 09:36:11;;;;;;;8.97;8.07;;;24.10;99.90;;;;;;5096845;28;20419;-71
2021/06/29 09:38:38;;;;;;;9.03;8.20;;;24.20;99.90;;;;;;5093133;28;20458;-72
2021/06/29 09:41:08;;;;;;;9.50;8.70;;;24.10;99.90;;;;;;5097295;28;20407;-72
2021/06/29 09:43:39;;;;;;;10.50;8.90;;;24.10;99.90;;;;;;5097206;28;20407;-71
2021/06/29 09:46:08;;;;;;;11.53;10.40;;;24.10;99.90;;;;;;5095665;28;20482;-71
2021/06/29 09:48:48;;;;;;;9.60;8.80;;;24.00;99.90;;;;;;5096693;28;20418;-72
2021/06/29 09:51:21;;;;;;;9.23;8.43;;;24.20;99.90;;;;;;5096740;28;20502;-73
2021/06/29 09:53:52;;;;;;;9.43;8.53;;;24.40;99.90;;;;;;5096784;28;20419;-72
2021/06/29 09:56:20;;;;;;;9.70;8.73;;;24.60;99.90;;;;;;5097051;28;20431;-71
2021/06/29 09:58:50;;;;;;;10.73;9.00;;;24.70;99.90;;;;;;5103892;28;20430;-72
2021/06/29 10:01:18;;;;;;;10.73;9.73;;;24.50;99.90;;;;;;5087341;28;20477;-73
2021/06/29 10:03:46;;;;;;;11.27;10.20;;;24.30;99.90;;;;;;5085781;28;20773;-73
2021/06/29 10:06:26;;;;;;;11.37;9.70;;;23.90;99.90;;;;;;5086505;28;20455;-73
2021/06/29 10:08:54;;;;;;;10.83;9.73;;;23.50;99.90;;;;;;5085407;28;20434;-73
2021/06/29 10:11:24;;;;;;;10.90;8.97;;;23.50;99.90;;;;;;5083638;28;21024;-73
2021/06/29 10:13:56;;;;;;;10.90;9.80;;;23.60;99.90;;;;;;5086720;28;20400;-73
2021/06/29 10:16:24;;;;;;;11.03;9.70;;;23.70;99.90;;;;;;5084308;28;20431;-73
2021/06/29 10:19:01;;;;;;;11.40;10.23;;;23.70;99.90;;;;;;5079336;28;20416;-72
2021/06/29 10:21:29;;;;;;;11.97;10.77;;;23.70;99.90;;;;;;5076368;28;20415;-72
2021/06/29 10:24:07;;;;;;;12.77;11.67;;;23.90;99.90;;;;;;5075694;28;20416;-71
2021/06/29 10:26:34;;;;;;;13.50;11.50;;;23.80;99.90;;;;;;5076662;28;20459;-72
2021/06/29 10:29:01;;;;;;;11.60;10.50;;;23.80;99.90;;;;;;5075885;28;20392;-71
2021/06/29 10:31:29;;;;;;;11.70;10.60;;;24.00;99.90;;;;;;5075627;28;20482;-72
2021/06/29 10:33:57;;;;;;;12.77;11.33;;;24.20;99.90;;;;;;5076194;28;20403;-71
2021/06/29 10:36:25;;;;;;;13.77;12.37;;;24.50;99.90;;;;;;5076743;28;20423;-72
2021/06/29 10:38:52;;;;;;;12.97;11.57;;;24.60;99.90;;;;;;5076414;28;20408;-72
2021/06/29 10:41:21;;;;;;;13.40;12.20;;;24.50;99.90;;;;;;5075579;28;20869;-72
2021/06/29 10:43:48;;;;;;;17.40;12.37;;;24.70;99.90;;;;;;5090367;28;20410;-72
2021/06/29 10:46:34;;;;;;;12.03;10.90;;;24.50;99.90;;;;;;5096313;28;20459;-71
2021/06/29 10:49:39;;;;;;;11.93;10.80;;;24.70;99.90;;;;;;5094351;28;20923;-74
2021/06/29 10:52:40;;;;;;;13.73;12.43;;;25.00;99.90;;;;;;5084537;28;20473;-72
2021/06/29 10:55:18;;;;;;;12.83;11.33;;;24.70;99.90;;;;;;5075121;28;20996;-73
2021/06/29 10:57:50;;;;;;;11.90;10.87;;;24.60;99.90;;;;;;5085101;28;20493;-73
2021/06/29 11:00:18;;;;;;;11.50;10.50;;;24.20;99.90;;;;;;5095799;28;21190;-72
2021/06/29 11:03:11;;;;;;;12.07;10.97;;;24.10;99.90;;;;;;5093954;28;20410;-72
2021/06/29 11:05:39;;;;;;;11.77;10.77;;;24.20;99.90;;;;;;5095900;28;20481;-73
2021/06/29 11:08:10;;;;;;;12.00;10.80;;;24.40;99.90;;;;;;5095692;28;20406;-75
2021/06/29 11:10:37;;;;;;;11.23;10.13;;;24.60;99.90;;;;;;5093784;28;20947;-72
2021/06/29 11:13:06;;;;;;;9.87;8.90;;;24.80;99.90;;;;;;5095457;28;20403;-73
2021/06/29 11:15:52;;;;;;;9.00;8.20;;;24.90;99.90;;;;;;5095285;28;20955;-72
2021/06/29 11:18:40;;;;;;;9.63;8.73;;;24.90;99.90;;;;;;5076236;28;20850;-72
2021/06/29 11:21:09;;;;;;;10.20;9.20;;;24.70;99.90;;;;;;5090956;28;20768;-72
2021/06/29 11:23:36;;;;;;;10.07;9.17;;;24.40;99.80;;;;;;5092787;28;20407;-72
2021/06/29 11:26:19;;;;;;;9.40;8.53;;;24.20;99.90;;;;;;5083993;28;20521;-72
2021/06/29 11:28:50;;;;;;;10.50;9.50;;;24.20;99.90;;;;;;5081327;28;20520;-72
2021/06/29 11:31:22;;;;;;;11.30;10.30;;;24.30;99.90;;;;;;5081805;28;20412;-73
2021/06/29 11:33:55;;;;;;;10.83;9.83;;;24.20;99.90;;;;;;5074837;28;20741;-72
2021/06/29 11:36:23;;;;;;;13.50;11.27;;;24.00;99.90;;;;;;5076098;28;20435;-72
2021/06/29 11:38:54;;;;;;;12.10;10.90;;;24.00;99.90;;;;;;5074926;28;20415;-71
2021/06/29 11:41:33;;;;;;;13.47;12.17;;;24.00;99.90;;;;;;5074423;28;20924;-70
2021/06/29 11:44:07;;;;;;;14.87;13.40;;;24.10;99.90;;;;;;5074368;28;20411;-72
2021/06/29 11:46:51;;;;;;;12.37;11.27;;;24.00;99.90;;;;;;5080494;28;20925;-72
2021/06/29 11:49:26;;;;;;;14.17;12.87;;;24.10;99.90;;;;;;5095015;28;20391;-71
2021/06/29 11:51:55;;;;;;;14.93;11.77;;;24.50;99.90;;;;;;5095487;28;20387;-73
2021/06/29 11:54:32;;;;;;;12.57;11.37;;;24.70;99.90;;;;;;5101132;28;20413;-71
2021/06/29 11:57:14;;;;;;;13.20;11.90;;;24.90;99.90;;;;;;5094790;28;20979;-72
2021/06/29 11:59:41;;;;;;;12.07;10.97;;;25.10;99.90;;;;;;5093669;28;20415;-72
2021/06/29 12:02:09;;;;;;;12.93;11.60;;;25.30;99.00;;;;;;5083361;28;20465;-73
2021/06/29 12:04:35;;;;;;;10.70;9.70;;;25.40;98.50;;;;;;5074146;28;20542;-73
2021/06/29 12:07:05;;;;;;;11.00;10.00;;;25.50;98.00;;;;;;5074061;28;20538;-72
2021/06/29 12:09:33;;;;;;;11.30;10.20;;;25.70;98.00;;;;;;5074109;28;20408;-71
2021/06/29 12:12:20;;;;;;;11.27;10.10;;;25.80;97.50;;;;;;5074895;28;20419;-71
2021/06/29 12:14:47;;;;;;;12.50;11.40;;;25.70;97.70;;;;;;5073113;28;20423;-72
2021/06/29 12:17:13;;;;;;;14.13;12.87;;;25.50;98.40;;;;;;5074139;28;20465;-72
2021/06/29 12:19:39;;;;;;;14.23;12.83;;;25.20;98.80;;;;;;5073647;28;20453;-72
2021/06/29 12:22:07;;;;;;;11.70;10.57;;;24.90;99.00;;;;;;5072502;28;20415;-72
2021/06/29 12:24:34;;;;;;;11.93;10.57;;;24.70;99.30;;;;;;5074354;28;20448;-73
2021/06/29 12:26:59;;;;;;;12.37;11.27;;;24.80;99.00;;;;;;5074275;28;20526;-72
2021/06/29 12:29:30;;;;;;;12.23;11.03;;;24.90;98.80;;;;;;5073788;28;20542;-73
2021/06/29 12:31:56;;;;;;;14.43;13.03;;;24.80;98.70;;;;;;5073670;28;20181;-74
2021/06/29 12:34:22;;;;;;;13.77;12.40;;;24.60;99.90;;;;;;5074287;28;20952;-73
2021/06/29 12:36:48;;;;;;;14.60;12.53;;;24.60;99.90;;;;;;5073972;28;20182;-71
2021/06/29 12:39:14;;;;;;;12.43;11.23;;;24.50;99.00;;;;;;5073832;28;20407;-72
2021/06/29 12:41:42;;;;;;;11.47;10.43;;;24.60;98.90;;;;;;5073713;28;20764;-72
2021/06/29 12:44:10;;;;;;;13.33;12.07;;;24.70;98.80;;;;;;5074683;28;20227;-72